createdAt,value
2016-12-30T00:00:21.978Z,0
2016-12-30T00:01:22.324Z,0
2016-12-30T00:02:22.274Z,0
2016-12-30T00:03:22.231Z,0
2016-12-30T00:04:21.804Z,0
2016-12-30T00:05:21.760Z,0
2016-12-30T00:06:21.718Z,0
2016-12-30T00:07:21.672Z,0
2016-12-30T00:08:21.629Z,0
2016-12-30T00:09:21.976Z,0
2016-12-30T00:10:21.149Z,0
2016-12-30T00:11:21.111Z,0
2016-12-30T00:12:21.068Z,0
2016-12-30T00:13:21.411Z,0
2016-12-30T00:14:21.777Z,0
2016-12-30T00:15:21.333Z,0
2016-12-30T00:16:20.892Z,0
2016-12-30T00:17:21.226Z,0
2016-12-30T00:18:20.808Z,0
2016-12-30T00:19:21.545Z,0
2016-12-30T00:20:21.115Z,0
2016-12-30T00:21:21.490Z,0
2016-12-30T00:22:21.477Z,0
2016-12-30T00:23:21.058Z,0
2016-12-30T00:24:21.314Z,0
2016-12-30T00:25:21.270Z,0
2016-12-30T00:26:20.452Z,0
2016-12-30T00:27:20.796Z,0
2016-12-30T00:28:20.368Z,0
2016-12-30T00:29:20.708Z,0
2016-12-30T00:30:20.695Z,0
2016-12-30T00:31:21.007Z,0
2016-12-30T00:32:20.581Z,0
2016-12-30T00:33:20.544Z,0
2016-12-30T00:34:20.112Z,0
2016-12-30T00:35:20.455Z,0
2016-12-30T00:36:20.802Z,0
2016-12-30T00:37:20.364Z,0
2016-12-30T00:38:20.320Z,0
2016-12-30T00:39:20.274Z,0
2016-12-30T00:40:20.266Z,0
2016-12-30T00:41:19.803Z,0
2016-12-30T00:42:20.169Z,0
2016-12-30T00:43:20.111Z,0
2016-12-30T00:44:20.445Z,0
2016-12-30T00:45:19.634Z,0
2016-12-30T00:46:19.976Z,0
2016-12-30T00:47:20.311Z,0
2016-12-30T00:48:20.272Z,0
2016-12-30T00:49:20.223Z,0
2016-12-30T00:50:20.183Z,0
2016-12-30T00:51:19.367Z,0
2016-12-30T00:52:20.101Z,0
2016-12-30T00:53:19.310Z,0
2016-12-30T00:54:20.025Z,0
2016-12-30T00:55:19.230Z,0
2016-12-30T00:56:19.918Z,0
2016-12-30T00:57:19.886Z,0
2016-12-30T00:58:19.449Z,0
2016-12-30T00:59:19.831Z,0
2016-12-30T01:00:19.744Z,0
2016-12-30T01:01:19.706Z,0
2016-12-30T01:02:19.673Z,0
2016-12-30T01:03:19.613Z,0
2016-12-30T01:04:18.805Z,0
2016-12-30T01:05:18.759Z,0
2016-12-30T01:06:19.491Z,0
2016-12-30T01:07:19.455Z,0
2016-12-30T01:08:19.398Z,0
2016-12-30T01:09:19.361Z,0
2016-12-30T01:10:18.545Z,0
2016-12-30T01:11:19.279Z,0
2016-12-30T01:12:19.228Z,0
2016-12-30T01:13:19.191Z,0
2016-12-30T01:14:18.783Z,0
2016-12-30T01:15:19.103Z,0
2016-12-30T01:16:18.293Z,0
2016-12-30T01:17:19.010Z,0
2016-12-30T01:18:18.968Z,0
2016-12-30T01:19:18.931Z,0
2016-12-30T01:20:18.897Z,0
2016-12-30T01:21:18.840Z,0
2016-12-30T01:22:18.796Z,0
2016-12-30T01:23:18.377Z,0
2016-12-30T01:24:18.322Z,0
2016-12-30T01:25:18.281Z,0
2016-12-30T01:26:18.622Z,0
2016-12-30T01:27:18.582Z,0
2016-12-30T01:28:18.540Z,0
2016-12-30T01:29:18.103Z,0
2016-12-30T01:30:18.451Z,0
2016-12-30T01:31:17.636Z,0
2016-12-30T01:32:18.011Z,0
2016-12-30T01:33:18.322Z,0
2016-12-30T01:34:17.506Z,0
2016-12-30T01:35:17.853Z,0
2016-12-30T01:36:17.802Z,0
2016-12-30T01:37:17.764Z,0
2016-12-30T01:38:16.948Z,0
2016-12-30T01:39:17.297Z,0
2016-12-30T01:40:18.044Z,0
2016-12-30T01:41:16.821Z,0
2016-12-30T01:42:17.543Z,0
2016-12-30T01:43:17.512Z,0
2016-12-30T01:44:17.078Z,0
2016-12-30T01:45:17.421Z,0
2016-12-30T01:46:17.760Z,0
2016-12-30T01:47:17.717Z,0
2016-12-30T01:48:17.293Z,0
2016-12-30T01:49:17.250Z,0
2016-12-30T01:50:17.613Z,0
2016-12-30T01:51:17.548Z,0
2016-12-30T01:52:17.119Z,0
2016-12-30T01:53:17.074Z,0
2016-12-30T01:54:17.439Z,0
2016-12-30T01:55:17.369Z,0
2016-12-30T01:56:17.329Z,0
2016-12-30T01:57:16.517Z,0
2016-12-30T01:58:17.249Z,0
2016-12-30T01:59:17.199Z,0
2016-12-30T02:00:17.193Z,0
2016-12-30T02:01:17.115Z,0
2016-12-30T02:02:16.304Z,0
2016-12-30T02:03:16.647Z,0
2016-12-30T02:04:16.987Z,0
2016-12-30T02:05:16.942Z,0
2016-12-30T02:06:16.516Z,0
2016-12-30T02:07:16.865Z,0
2016-12-30T02:08:16.436Z,0
2016-12-30T02:09:16.770Z,0
2016-12-30T02:10:16.730Z,0
2016-12-30T02:11:16.300Z,0
2016-12-30T02:12:15.906Z,0
2016-12-30T02:13:15.839Z,0
2016-12-30T02:14:16.561Z,0
2016-12-30T02:15:16.518Z,0
2016-12-30T02:16:16.474Z,0
2016-12-30T02:17:15.696Z,0
2016-12-30T02:18:16.384Z,0
2016-12-30T02:19:15.962Z,0
2016-12-30T02:20:14.759Z,0
2016-12-30T02:21:15.875Z,0
2016-12-30T02:22:16.216Z,0
2016-12-30T02:23:16.173Z,0
2016-12-30T02:24:16.131Z,0
2016-12-30T02:25:14.932Z,0
2016-12-30T02:26:16.048Z,0
2016-12-30T02:27:15.233Z,0
2016-12-30T02:28:15.965Z,0
2016-12-30T02:29:15.527Z,0
2016-12-30T02:30:15.870Z,0
2016-12-30T02:31:15.443Z,0
2016-12-30T02:32:15.814Z,0
2016-12-30T02:33:15.359Z,0
2016-12-30T02:34:15.316Z,0
2016-12-30T02:35:14.887Z,0
2016-12-30T02:36:14.839Z,0
2016-12-30T02:37:15.186Z,0
2016-12-30T02:38:15.141Z,0
2016-12-30T02:39:14.716Z,0
2016-12-30T02:40:14.674Z,0
2016-12-30T02:41:15.410Z,0
2016-12-30T02:42:14.975Z,0
2016-12-30T02:43:14.928Z,0
2016-12-30T02:44:14.540Z,0
2016-12-30T02:45:14.455Z,0
2016-12-30T02:46:14.804Z,0
2016-12-30T02:47:15.141Z,0
2016-12-30T02:48:15.104Z,0
2016-12-30T02:49:14.675Z,0
2016-12-30T02:50:14.627Z,0
2016-12-30T02:51:14.975Z,0
2016-12-30T02:52:14.547Z,0
2016-12-30T02:53:14.510Z,0
2016-12-30T02:54:14.845Z,0
2016-12-30T02:55:14.804Z,0
2016-12-30T02:56:14.368Z,0
2016-12-30T02:57:14.716Z,0
2016-12-30T02:58:13.902Z,0
2016-12-30T02:59:14.247Z,0
2016-12-30T03:00:14.590Z,0
2016-12-30T03:01:14.184Z,0
2016-12-30T03:02:13.753Z,0
2016-12-30T03:03:14.461Z,0
2016-12-30T03:04:13.650Z,0
2016-12-30T03:05:14.016Z,0
2016-12-30T03:06:13.559Z,0
2016-12-30T03:07:13.912Z,0
2016-12-30T03:08:13.859Z,0
2016-12-30T03:09:13.435Z,0
2016-12-30T03:10:13.391Z,0
2016-12-30T03:11:13.349Z,0
2016-12-30T03:12:13.690Z,0
2016-12-30T03:13:14.039Z,0
2016-12-30T03:14:13.226Z,0
2016-12-30T03:15:13.557Z,0
2016-12-30T03:16:13.535Z,0
2016-12-30T03:17:13.860Z,0
2016-12-30T03:18:13.823Z,0
2016-12-30T03:19:13.393Z,0
2016-12-30T03:20:12.584Z,0
2016-12-30T03:21:13.692Z,0
2016-12-30T03:22:13.268Z,0
2016-12-30T03:23:13.605Z,0
2016-12-30T03:24:12.401Z,0
2016-12-30T03:25:13.135Z,0
2016-12-30T03:26:12.707Z,0
2016-12-30T03:27:13.435Z,0
2016-12-30T03:28:13.007Z,0
2016-12-30T03:29:12.959Z,0
2016-12-30T03:30:13.306Z,0
2016-12-30T03:31:12.879Z,0
2016-12-30T03:32:13.226Z,0
2016-12-30T03:33:12.798Z,0
2016-12-30T03:34:12.375Z,0
2016-12-30T03:35:12.706Z,0
2016-12-30T03:36:12.296Z,0
2016-12-30T03:37:13.009Z,0
2016-12-30T03:38:12.578Z,0
2016-12-30T03:39:12.538Z,0
2016-12-30T03:40:12.522Z,0
2016-12-30T03:41:11.678Z,0
2016-12-30T03:42:12.807Z,0
2016-12-30T03:43:12.751Z,0
2016-12-30T03:44:12.325Z,0
2016-12-30T03:45:12.665Z,0
2016-12-30T03:46:12.242Z,0
2016-12-30T03:47:12.584Z,0
2016-12-30T03:48:12.157Z,0
2016-12-30T03:49:11.340Z,0
2016-12-30T03:50:11.677Z,0
2016-12-30T03:51:12.406Z,0
2016-12-30T03:52:11.983Z,0
2016-12-30T03:53:11.946Z,0
2016-12-30T03:54:12.284Z,0
2016-12-30T03:55:11.853Z,0
2016-12-30T03:56:11.812Z,0
2016-12-30T03:57:11.784Z,0
2016-12-30T03:58:12.107Z,0
2016-12-30T03:59:12.068Z,0
2016-12-30T04:00:11.662Z,0
2016-12-30T04:01:11.983Z,0
2016-12-30T04:02:11.169Z,0
2016-12-30T04:03:11.898Z,0
2016-12-30T04:04:11.468Z,0
2016-12-30T04:05:11.425Z,0
2016-12-30T04:06:11.777Z,0
2016-12-30T04:07:11.342Z,0
2016-12-30T04:08:11.304Z,0
2016-12-30T04:09:11.636Z,0
2016-12-30T04:10:11.215Z,0
2016-12-30T04:11:11.170Z,0
2016-12-30T04:12:11.513Z,0
2016-12-30T04:13:11.088Z,0
2016-12-30T04:14:11.042Z,0
2016-12-30T04:15:11.001Z,0
2016-12-30T04:16:10.964Z,0
2016-12-30T04:17:10.915Z,0
2016-12-30T04:18:11.258Z,0
2016-12-30T04:19:10.833Z,0
2016-12-30T04:20:11.171Z,0
2016-12-30T04:21:10.752Z,0
2016-12-30T04:22:11.088Z,0
2016-12-30T04:23:11.042Z,0
2016-12-30T04:24:10.993Z,0
2016-12-30T04:25:10.957Z,0
2016-12-30T04:26:10.922Z,0
2016-12-30T04:27:10.098Z,0
2016-12-30T04:28:10.824Z,0
2016-12-30T04:29:09.631Z,0
2016-12-30T04:30:10.747Z,0
2016-12-30T04:31:10.317Z,0
2016-12-30T04:32:10.273Z,0
2016-12-30T04:33:10.630Z,0
2016-12-30T04:34:09.801Z,0
2016-12-30T04:35:10.532Z,0
2016-12-30T04:36:10.102Z,0
2016-12-30T04:37:09.672Z,0
2016-12-30T04:38:09.631Z,0
2016-12-30T04:39:10.354Z,0
2016-12-30T04:40:09.159Z,0
2016-12-30T04:41:09.884Z,0
2016-12-30T04:42:09.835Z,0
2016-12-30T04:43:09.806Z,0
2016-12-30T04:44:09.764Z,0
2016-12-30T04:45:09.725Z,0
2016-12-30T04:46:10.062Z,0
2016-12-30T04:47:10.013Z,0
2016-12-30T04:48:09.977Z,0
2016-12-30T04:49:09.545Z,0
2016-12-30T04:50:09.889Z,0
2016-12-30T04:51:09.078Z,0
2016-12-30T04:52:09.423Z,0
2016-12-30T04:53:09.374Z,0
2016-12-30T04:54:09.727Z,0
2016-12-30T04:55:09.289Z,0
2016-12-30T04:56:09.248Z,0
2016-12-30T04:57:09.202Z,0
2016-12-30T04:58:09.546Z,0
2016-12-30T04:59:09.504Z,0
2016-12-30T05:00:09.471Z,0
2016-12-30T05:01:08.661Z,0
2016-12-30T05:02:09.376Z,0
2016-12-30T05:03:09.334Z,0
2016-12-30T05:04:08.906Z,0
2016-12-30T05:05:08.864Z,0
2016-12-30T05:06:08.826Z,0
2016-12-30T05:07:08.783Z,0
2016-12-30T05:08:09.112Z,0
2016-12-30T05:09:08.699Z,0
2016-12-30T05:10:08.655Z,0
2016-12-30T05:11:08.995Z,0
2016-12-30T05:12:08.580Z,0
2016-12-30T05:13:08.148Z,0
2016-12-30T05:14:08.863Z,0
2016-12-30T05:15:08.820Z,0
2016-12-30T05:16:08.798Z,0
2016-12-30T05:17:08.367Z,0
2016-12-30T05:18:08.695Z,0
2016-12-30T05:19:08.653Z,0
2016-12-30T05:20:08.630Z,0
2016-12-30T05:21:08.188Z,0
2016-12-30T05:22:08.135Z,0
2016-12-30T05:23:08.090Z,0
2016-12-30T05:24:08.443Z,0
2016-12-30T05:25:07.625Z,0
2016-12-30T05:26:08.353Z,0
2016-12-30T05:27:07.926Z,0
2016-12-30T05:28:07.889Z,0
2016-12-30T05:29:07.450Z,0
2016-12-30T05:30:07.028Z,0
2016-12-30T05:31:07.371Z,0
2016-12-30T05:32:07.737Z,0
2016-12-30T05:33:08.053Z,0
2016-12-30T05:34:07.641Z,0
2016-12-30T05:35:07.993Z,0
2016-12-30T05:36:07.927Z,0
2016-12-30T05:37:07.886Z,0
2016-12-30T05:38:07.062Z,0
2016-12-30T05:39:07.051Z,0
2016-12-30T05:40:07.750Z,0
2016-12-30T05:41:07.710Z,0
2016-12-30T05:42:07.665Z,0
2016-12-30T05:43:07.241Z,0
2016-12-30T05:44:07.201Z,0
2016-12-30T05:45:06.769Z,0
2016-12-30T05:46:06.731Z,0
2016-12-30T05:47:07.068Z,0
2016-12-30T05:48:07.413Z,0
2016-12-30T05:49:06.985Z,0
2016-12-30T05:50:06.553Z,0
2016-12-30T05:51:06.897Z,0
2016-12-30T05:52:06.859Z,0
2016-12-30T05:53:07.212Z,0
2016-12-30T05:54:07.165Z,0
2016-12-30T05:55:07.115Z,0
2016-12-30T05:56:07.068Z,0
2016-12-30T05:57:06.263Z,0
2016-12-30T05:58:06.987Z,0
2016-12-30T05:59:06.554Z,0
2016-12-30T06:00:06.902Z,0
2016-12-30T06:01:06.861Z,0
2016-12-30T06:02:06.426Z,0
2016-12-30T06:03:06.000Z,0
2016-12-30T06:04:06.728Z,0
2016-12-30T06:05:06.685Z,0
2016-12-30T06:06:06.643Z,0
2016-12-30T06:07:06.604Z,0
2016-12-30T06:08:06.173Z,0
2016-12-30T06:09:05.766Z,0
2016-12-30T06:10:06.098Z,0
2016-12-30T06:11:06.424Z,0
2016-12-30T06:12:06.001Z,0
2016-12-30T06:13:05.967Z,0
2016-12-30T06:14:05.535Z,0
2016-12-30T06:15:05.103Z,0
2016-12-30T06:16:05.829Z,0
2016-12-30T06:17:05.788Z,0
2016-12-30T06:18:06.133Z,0
2016-12-30T06:19:05.700Z,0
2016-12-30T06:20:06.047Z,0
2016-12-30T06:21:05.999Z,0
2016-12-30T06:22:05.955Z,0
2016-12-30T06:23:05.532Z,0
2016-12-30T06:24:05.491Z,0
2016-12-30T06:25:05.057Z,0
2016-12-30T06:26:05.404Z,0
2016-12-30T06:27:05.741Z,0
2016-12-30T06:28:05.312Z,0
2016-12-30T06:29:05.272Z,0
2016-12-30T06:30:04.844Z,0
2016-12-30T06:31:05.186Z,0
2016-12-30T06:32:05.148Z,0
2016-12-30T06:33:05.508Z,0
2016-12-30T06:34:05.057Z,0
2016-12-30T06:35:05.403Z,0
2016-12-30T06:36:04.585Z,0
2016-12-30T06:37:04.926Z,0
2016-12-30T06:38:05.270Z,0
2016-12-30T06:39:04.458Z,0
2016-12-30T06:40:05.187Z,0
2016-12-30T06:41:04.374Z,0
2016-12-30T06:42:04.716Z,0
2016-12-30T06:43:04.283Z,0
2016-12-30T06:44:05.022Z,0
2016-12-30T06:45:04.200Z,0
2016-12-30T06:46:04.543Z,0
2016-12-30T06:47:04.494Z,0
2016-12-30T06:48:04.842Z,0
2016-12-30T06:49:04.409Z,0
2016-12-30T06:50:04.368Z,0
2016-12-30T06:51:04.332Z,0
2016-12-30T06:52:04.687Z,0
2016-12-30T06:53:04.241Z,0
2016-12-30T06:54:04.575Z,0
2016-12-30T06:55:04.543Z,0
2016-12-30T06:56:04.113Z,0
2016-12-30T06:57:03.686Z,0
2016-12-30T06:58:03.644Z,0
2016-12-30T06:59:03.622Z,0
2016-12-30T07:00:04.328Z,0
2016-12-30T07:01:03.897Z,0
2016-12-30T07:02:04.236Z,0
2016-12-30T07:03:04.213Z,0
2016-12-30T07:04:04.150Z,0
2016-12-30T07:05:03.726Z,0
2016-12-30T07:06:03.685Z,0
2016-12-30T07:07:04.024Z,0
2016-12-30T07:08:03.213Z,0
2016-12-30T07:09:03.936Z,0
2016-12-30T07:10:03.505Z,0
2016-12-30T07:11:03.076Z,0
2016-12-30T07:12:03.040Z,0
2016-12-30T07:13:03.766Z,0
2016-12-30T07:14:03.342Z,0
2016-12-30T07:15:03.682Z,0
2016-12-30T07:16:02.865Z,0
2016-12-30T07:17:02.830Z,0
2016-12-30T07:18:03.163Z,0
2016-12-30T07:19:03.503Z,0
2016-12-30T07:20:03.073Z,0
2016-12-30T07:21:03.421Z,0
2016-12-30T07:22:02.999Z,0
2016-12-30T07:23:02.570Z,0
2016-12-30T07:24:03.293Z,5
2016-12-30T07:25:03.256Z,5
2016-12-30T07:26:03.205Z,5
2016-12-30T07:27:02.392Z,5
2016-12-30T07:28:03.117Z,5
2016-12-30T07:29:02.690Z,5
2016-12-30T07:30:03.034Z,5
2016-12-30T07:31:02.601Z,5
2016-12-30T07:32:02.563Z,5
2016-12-30T07:33:02.132Z,5
2016-12-30T07:34:02.479Z,5
2016-12-30T07:35:02.820Z,5
2016-12-30T07:36:02.393Z,5
2016-12-30T07:37:02.351Z,5
2016-12-30T07:38:01.919Z,5
2016-12-30T07:39:02.264Z,5
2016-12-30T07:40:02.224Z,10
2016-12-30T07:41:02.178Z,10
2016-12-30T07:42:01.750Z,10
2016-12-30T07:43:02.480Z,10
2016-12-30T07:44:02.051Z,10
2016-12-30T07:45:02.409Z,10
2016-12-30T07:46:02.001Z,10
2016-12-30T07:47:02.309Z,10
2016-12-30T07:48:01.524Z,10
2016-12-30T07:49:01.850Z,10
2016-12-30T07:50:02.181Z,10
2016-12-30T07:51:02.137Z,10
2016-12-30T07:52:01.343Z,10
2016-12-30T07:53:02.054Z,15
2016-12-30T07:54:02.016Z,15
2016-12-30T07:55:01.999Z,15
2016-12-30T07:56:01.535Z,15
2016-12-30T07:57:01.890Z,15
2016-12-30T07:58:01.834Z,15
2016-12-30T07:59:01.410Z,15
2016-12-30T08:00:00.977Z,15
2016-12-30T08:01:00.942Z,15
2016-12-30T08:02:01.281Z,15
2016-12-30T08:03:01.623Z,20
2016-12-30T08:04:00.421Z,20
2016-12-30T08:05:01.153Z,20
2016-12-30T08:06:01.107Z,20
2016-12-30T08:07:01.066Z,20
2016-12-30T08:08:00.642Z,20
2016-12-30T08:09:01.365Z,20
2016-12-30T08:10:00.550Z,20
2016-12-30T08:11:00.899Z,20
2016-12-30T08:12:01.237Z,25
2016-12-30T08:13:01.209Z,25
2016-12-30T08:14:00.779Z,25
2016-12-30T08:15:01.106Z,25
2016-12-30T08:16:00.678Z,25
2016-12-30T08:17:00.252Z,25
2016-12-30T08:18:00.597Z,25
2016-12-30T08:19:00.546Z,25
2016-12-30T08:20:00.898Z,25
2016-12-30T08:21:00.461Z,30
2016-12-30T08:22:00.429Z,30
2016-12-30T08:23:00.391Z,30
2016-12-30T08:23:59.954Z,30
2016-12-30T08:25:00.299Z,30
2016-12-30T08:25:59.871Z,30
2016-12-30T08:27:00.215Z,30
2016-12-30T08:28:00.165Z,30
2016-12-30T08:29:00.130Z,30
2016-12-30T08:30:00.094Z,30
2016-12-30T08:31:00.063Z,30
2016-12-30T08:32:00.004Z,30
2016-12-30T08:32:59.989Z,30
2016-12-30T08:34:00.303Z,30
2016-12-30T08:34:59.870Z,35
2016-12-30T08:36:00.212Z,35
2016-12-30T08:36:59.810Z,35
2016-12-30T08:37:59.746Z,35
2016-12-30T08:38:59.699Z,35
2016-12-30T08:39:59.653Z,35
2016-12-30T08:40:59.615Z,35
2016-12-30T08:41:59.956Z,35
2016-12-30T08:42:59.529Z,35
2016-12-30T08:43:59.873Z,35
2016-12-30T08:44:59.447Z,35
2016-12-30T08:45:59.410Z,40
2016-12-30T08:46:59.742Z,40
2016-12-30T08:47:59.698Z,40
2016-12-30T08:48:59.653Z,40
2016-12-30T08:49:58.843Z,40
2016-12-30T08:50:59.590Z,40
2016-12-30T08:51:58.761Z,40
2016-12-30T08:52:58.721Z,40
2016-12-30T08:53:59.446Z,40
2016-12-30T08:54:58.645Z,40
2016-12-30T08:55:58.593Z,45
2016-12-30T08:56:58.930Z,45
2016-12-30T08:57:58.506Z,45
2016-12-30T08:58:59.263Z,45
2016-12-30T08:59:58.809Z,45
2016-12-30T09:00:59.149Z,45
2016-12-30T09:01:59.104Z,45
2016-12-30T09:02:59.061Z,50
2016-12-30T09:03:59.015Z,50
2016-12-30T09:04:59.013Z,50
2016-12-30T09:05:58.938Z,50
2016-12-30T09:06:58.510Z,50
2016-12-30T09:07:58.850Z,50
2016-12-30T09:08:58.035Z,50
2016-12-30T09:09:58.385Z,55
2016-12-30T09:10:58.728Z,55
2016-12-30T09:11:58.716Z,55
2016-12-30T09:12:58.254Z,55
2016-12-30T09:13:57.836Z,55
2016-12-30T09:14:57.782Z,55
2016-12-30T09:15:57.357Z,60
2016-12-30T09:16:58.471Z,60
2016-12-30T09:17:57.653Z,60
2016-12-30T09:18:58.003Z,60
2016-12-30T09:19:58.346Z,60
2016-12-30T09:20:57.914Z,60
2016-12-30T09:21:57.489Z,60
2016-12-30T09:22:57.829Z,60
2016-12-30T09:23:58.173Z,60
2016-12-30T09:24:57.749Z,60
2016-12-30T09:25:58.093Z,60
2016-12-30T09:26:58.046Z,60
2016-12-30T09:27:58.003Z,60
2016-12-30T09:28:57.198Z,60
2016-12-30T09:29:57.153Z,60
2016-12-30T09:30:57.888Z,60
2016-12-30T09:31:57.064Z,65
2016-12-30T09:32:57.023Z,65
2016-12-30T09:33:57.367Z,65
2016-12-30T09:34:57.713Z,60
2016-12-30T09:35:57.289Z,65
2016-12-30T09:36:57.240Z,65
2016-12-30T09:37:57.588Z,65
2016-12-30T09:38:57.155Z,65
2016-12-30T09:39:56.734Z,65
2016-12-30T09:40:57.072Z,65
2016-12-30T09:41:57.413Z,65
2016-12-30T09:42:56.601Z,65
2016-12-30T09:43:57.356Z,70
2016-12-30T09:44:56.132Z,70
2016-12-30T09:45:56.886Z,70
2016-12-30T09:46:57.202Z,75
2016-12-30T09:47:56.774Z,75
2016-12-30T09:48:56.738Z,75
2016-12-30T09:49:57.084Z,75
2016-12-30T09:50:56.265Z,75
2016-12-30T09:51:56.988Z,75
2016-12-30T09:52:56.175Z,75
2016-12-30T09:53:56.908Z,75
2016-12-30T09:54:56.866Z,75
2016-12-30T09:55:56.823Z,75
2016-12-30T09:56:55.625Z,75
2016-12-30T09:57:55.966Z,80
2016-12-30T09:58:56.705Z,80
2016-12-30T09:59:56.656Z,80
2016-12-30T10:00:56.235Z,80
2016-12-30T10:01:56.574Z,80
2016-12-30T10:02:56.531Z,80
2016-12-30T10:03:56.497Z,80
2016-12-30T10:04:55.684Z,80
2016-12-30T10:05:56.404Z,80
2016-12-30T10:06:56.367Z,80
2016-12-30T10:07:56.323Z,80
2016-12-30T10:08:55.889Z,80
2016-12-30T10:09:55.466Z,80
2016-12-30T10:10:55.809Z,80
2016-12-30T10:11:55.388Z,85
2016-12-30T10:12:56.111Z,85
2016-12-30T10:13:56.067Z,85
2016-12-30T10:14:55.258Z,85
2016-12-30T10:15:55.219Z,85
2016-12-30T10:16:55.182Z,85
2016-12-30T10:17:55.515Z,85
2016-12-30T10:18:55.470Z,85
2016-12-30T10:19:55.819Z,85
2016-12-30T10:20:55.775Z,85
2016-12-30T10:21:55.733Z,85
2016-12-30T10:22:55.692Z,85
2016-12-30T10:23:54.878Z,85
2016-12-30T10:24:55.223Z,85
2016-12-30T10:25:55.178Z,85
2016-12-30T10:26:55.524Z,85
2016-12-30T10:27:55.104Z,80
2016-12-30T10:28:55.442Z,80
2016-12-30T10:29:55.017Z,85
2016-12-30T10:30:55.362Z,85
2016-12-30T10:31:55.323Z,85
2016-12-30T10:32:55.274Z,85
2016-12-30T10:33:54.461Z,85
2016-12-30T10:34:55.197Z,85
2016-12-30T10:35:54.376Z,85
2016-12-30T10:36:55.116Z,85
2016-12-30T10:37:54.296Z,85
2016-12-30T10:38:54.638Z,85
2016-12-30T10:39:54.205Z,85
2016-12-30T10:40:54.565Z,85
2016-12-30T10:41:54.896Z,90
2016-12-30T10:42:54.471Z,90
2016-12-30T10:43:54.815Z,90
2016-12-30T10:44:54.402Z,90
2016-12-30T10:45:54.735Z,90
2016-12-30T10:46:54.307Z,90
2016-12-30T10:47:54.268Z,90
2016-12-30T10:48:54.224Z,90
2016-12-30T10:49:54.179Z,95
2016-12-30T10:50:53.752Z,95
2016-12-30T10:51:54.481Z,95
2016-12-30T10:52:54.439Z,90
2016-12-30T10:53:54.015Z,90
2016-12-30T10:54:54.359Z,90
2016-12-30T10:55:54.317Z,85
2016-12-30T10:56:53.890Z,85
2016-12-30T10:57:54.231Z,85
2016-12-30T10:58:54.230Z,85
2016-12-30T10:59:54.144Z,85
2016-12-30T11:00:54.111Z,85
2016-12-30T11:01:52.913Z,85
2016-12-30T11:02:54.032Z,85
2016-12-30T11:03:53.987Z,90
2016-12-30T11:04:53.555Z,90
2016-12-30T11:05:53.906Z,85
2016-12-30T11:06:53.100Z,85
2016-12-30T11:07:53.434Z,90
2016-12-30T11:08:53.796Z,85
2016-12-30T11:09:53.350Z,85
2016-12-30T11:10:53.714Z,85
2016-12-30T11:11:52.884Z,85
2016-12-30T11:12:52.850Z,85
2016-12-30T11:13:53.184Z,85
2016-12-30T11:14:53.528Z,85
2016-12-30T11:15:53.489Z,85
2016-12-30T11:16:53.059Z,85
2016-12-30T11:17:53.405Z,85
2016-12-30T11:18:53.404Z,85
2016-12-30T11:19:53.323Z,85
2016-12-30T11:20:52.891Z,85
2016-12-30T11:21:52.491Z,85
2016-12-30T11:22:52.425Z,85
2016-12-30T11:23:53.154Z,80
2016-12-30T11:24:52.351Z,80
2016-12-30T11:25:53.075Z,85
2016-12-30T11:26:53.038Z,85
2016-12-30T11:27:52.621Z,85
2016-12-30T11:28:52.952Z,85
2016-12-30T11:29:52.174Z,90
2016-12-30T11:30:52.871Z,90
2016-12-30T11:31:52.828Z,90
2016-12-30T11:32:52.788Z,90
2016-12-30T11:33:51.595Z,90
2016-12-30T11:34:52.318Z,90
2016-12-30T11:35:52.660Z,90
2016-12-30T11:36:52.617Z,85
2016-12-30T11:37:52.580Z,85
2016-12-30T11:38:52.159Z,85
2016-12-30T11:39:52.111Z,90
2016-12-30T11:40:52.069Z,85
2016-12-30T11:41:52.035Z,85
2016-12-30T11:42:52.001Z,85
2016-12-30T11:43:51.947Z,85
2016-12-30T11:44:51.519Z,85
2016-12-30T11:45:51.874Z,80
2016-12-30T11:46:51.433Z,80
2016-12-30T11:47:51.784Z,75
2016-12-30T11:48:51.352Z,75
2016-12-30T11:49:51.705Z,75
2016-12-30T11:50:52.052Z,75
2016-12-30T11:51:52.013Z,75
2016-12-30T11:52:51.961Z,75
2016-12-30T11:53:51.533Z,80
2016-12-30T11:54:51.496Z,80
2016-12-30T11:55:51.447Z,80
2016-12-30T11:56:51.800Z,85
2016-12-30T11:57:51.368Z,85
2016-12-30T11:58:51.715Z,85
2016-12-30T11:59:51.672Z,85
2016-12-30T12:00:50.864Z,85
2016-12-30T12:01:51.205Z,85
2016-12-30T12:02:50.788Z,85
2016-12-30T12:03:51.114Z,85
2016-12-30T12:04:51.076Z,85
2016-12-30T12:05:51.038Z,85
2016-12-30T12:06:51.005Z,85
2016-12-30T12:07:51.339Z,90
2016-12-30T12:08:51.327Z,90
2016-12-30T12:09:50.490Z,90
2016-12-30T12:10:50.452Z,95
2016-12-30T12:11:51.201Z,95
2016-12-30T12:12:51.163Z,90
2016-12-30T12:13:50.712Z,90
2016-12-30T12:14:51.051Z,90
2016-12-30T12:15:51.011Z,90
2016-12-30T12:16:49.829Z,95
2016-12-30T12:17:50.934Z,90
2016-12-30T12:18:50.885Z,90
2016-12-30T12:19:50.462Z,90
2016-12-30T12:20:50.041Z,85
2016-12-30T12:21:50.029Z,85
2016-12-30T12:22:49.957Z,90
2016-12-30T12:23:50.300Z,90
2016-12-30T12:24:50.261Z,95
2016-12-30T12:25:49.837Z,95
2016-12-30T12:26:50.187Z,100
2016-12-30T12:27:50.144Z,95
2016-12-30T12:28:50.125Z,95
2016-12-30T12:29:50.075Z,90
2016-12-30T12:30:49.627Z,90
2016-12-30T12:31:49.997Z,90
2016-12-30T12:32:49.544Z,90
2016-12-30T12:33:49.887Z,85
2016-12-30T12:34:49.867Z,85
2016-12-30T12:35:50.192Z,85
2016-12-30T12:36:50.157Z,85
2016-12-30T12:37:49.731Z,85
2016-12-30T12:38:49.292Z,85
2016-12-30T12:39:50.030Z,85
2016-12-30T12:40:49.595Z,80
2016-12-30T12:41:48.405Z,80
2016-12-30T12:42:49.166Z,80
2016-12-30T12:43:49.486Z,85
2016-12-30T12:44:49.442Z,80
2016-12-30T12:45:49.791Z,85
2016-12-30T12:46:49.354Z,85
2016-12-30T12:47:49.312Z,85
2016-12-30T12:48:48.890Z,85
2016-12-30T12:49:48.868Z,85
2016-12-30T12:50:49.198Z,80
2016-12-30T12:51:49.532Z,80
2016-12-30T12:52:49.114Z,80
2016-12-30T12:53:49.455Z,80
2016-12-30T12:54:48.640Z,80
2016-12-30T12:55:48.984Z,80
2016-12-30T12:56:48.939Z,80
2016-12-30T12:57:48.136Z,80
2016-12-30T12:58:48.857Z,80
2016-12-30T12:59:49.203Z,80
2016-12-30T13:00:48.784Z,80
2016-12-30T13:01:49.127Z,75
2016-12-30T13:02:48.311Z,75
2016-12-30T13:03:49.034Z,75
2016-12-30T13:04:48.622Z,75
2016-12-30T13:05:48.574Z,75
2016-12-30T13:06:48.534Z,75
2016-12-30T13:07:48.876Z,75
2016-12-30T13:08:48.071Z,75
2016-12-30T13:09:48.798Z,70
2016-12-30T13:10:48.372Z,70
2016-12-30T13:11:48.713Z,70
2016-12-30T13:12:48.688Z,70
2016-12-30T13:13:47.856Z,75
2016-12-30T13:14:47.822Z,75
2016-12-30T13:15:48.540Z,75
2016-12-30T13:16:47.732Z,75
2016-12-30T13:17:48.077Z,70
2016-12-30T13:18:48.043Z,70
2016-12-30T13:19:47.607Z,70
2016-12-30T13:20:48.363Z,70
2016-12-30T13:21:47.917Z,70
2016-12-30T13:22:47.875Z,70
2016-12-30T13:23:48.230Z,70
2016-12-30T13:24:47.406Z,65
2016-12-30T13:25:47.747Z,65
2016-12-30T13:26:48.090Z,65
2016-12-30T13:27:48.060Z,65
2016-12-30T13:28:47.625Z,65
2016-12-30T13:29:47.971Z,65
2016-12-30T13:30:47.927Z,65
2016-12-30T13:31:47.117Z,65
2016-12-30T13:32:47.465Z,60
2016-12-30T13:33:47.425Z,60
2016-12-30T13:34:46.990Z,60
2016-12-30T13:35:47.991Z,60
2016-12-30T13:36:47.301Z,60
2016-12-30T13:37:46.867Z,60
2016-12-30T13:38:46.443Z,60
2016-12-30T13:39:46.042Z,60
2016-12-30T13:40:47.529Z,65
2016-12-30T13:41:46.730Z,65
2016-12-30T13:42:47.441Z,60
2016-12-30T13:43:47.009Z,60
2016-12-30T13:44:46.958Z,60
2016-12-30T13:45:46.919Z,55
2016-12-30T13:46:46.886Z,60
2016-12-30T13:47:46.853Z,60
2016-12-30T13:48:47.187Z,60
2016-12-30T13:49:46.383Z,60
2016-12-30T13:50:47.096Z,60
2016-12-30T13:51:46.292Z,55
2016-12-30T13:52:46.633Z,55
2016-12-30T13:53:46.974Z,55
2016-12-30T13:54:46.942Z,55
2016-12-30T13:55:46.135Z,55
2016-12-30T13:56:46.085Z,55
2016-12-30T13:57:46.434Z,55
2016-12-30T13:58:46.773Z,55
2016-12-30T13:59:46.733Z,50
2016-12-30T14:00:46.688Z,50
2016-12-30T14:01:46.266Z,50
2016-12-30T14:02:46.223Z,50
2016-12-30T14:03:46.197Z,50
2016-12-30T14:04:46.523Z,50
2016-12-30T14:05:45.710Z,50
2016-12-30T14:06:46.055Z,50
2016-12-30T14:07:46.410Z,50
2016-12-30T14:08:46.363Z,50
2016-12-30T14:09:45.938Z,45
2016-12-30T14:10:45.889Z,45
2016-12-30T14:11:45.077Z,45
2016-12-30T14:12:46.196Z,45
2016-12-30T14:13:45.387Z,45
2016-12-30T14:14:46.115Z,45
2016-12-30T14:15:46.093Z,45
2016-12-30T14:16:44.866Z,40
2016-12-30T14:17:45.608Z,40
2016-12-30T14:18:45.560Z,40
2016-12-30T14:19:45.918Z,40
2016-12-30T14:20:45.475Z,40
2016-12-30T14:21:45.449Z,40
2016-12-30T14:22:45.800Z,40
2016-12-30T14:23:44.969Z,40
2016-12-30T14:24:45.310Z,35
2016-12-30T14:25:45.664Z,35
2016-12-30T14:26:44.847Z,35
2016-12-30T14:27:45.572Z,35
2016-12-30T14:28:44.764Z,35
2016-12-30T14:29:44.722Z,35
2016-12-30T14:30:45.458Z,35